sensor_id;sensor_type;location;lat;lon;timestamp;temperature;humidity
31991;DHT22;18508;49.386;8.370;2022-09-19T00:00:04;8.20;99.90
31991;DHT22;18508;49.386;8.370;2022-09-19T00:02:34;8.10;99.90
31991;DHT22;18508;49.386;8.370;2022-09-19T00:05:03;8.10;99.90
31991;DHT22;18508;49.386;8.370;2022-09-19T00:07:37;8.10;99.90
31991;DHT22;18508;49.386;8.370;2022-09-19T00:10:06;8.10;99.90
31991;DHT22;18508;49.386;8.370;2022-09-19T00:12:34;8.10;99.90
31991;DHT22;18508;49.386;8.370;2022-09-19T00:15:03;8.10;99.90
31991;DHT22;18508;49.386;8.370;2022-09-19T00:17:36;8.10;99.90
31991;DHT22;18508;49.386;8.370;2022-09-19T00:20:06;8.00;99.90
31991;DHT22;18508;49.386;8.370;2022-09-19T00:22:35;8.00;99.90
31991;DHT22;18508;49.386;8.370;2022-09-19T00:25:24;8.00;99.90
31991;DHT22;18508;49.386;8.370;2022-09-19T00:27:53;8.00;99.90
31991;DHT22;18508;49.386;8.370;2022-09-19T00:30:23;8.00;99.90
31991;DHT22;18508;49.386;8.370;2022-09-19T00:32:54;8.00;99.90
31991;DHT22;18508;49.386;8.370;2022-09-19T00:35:24;8.00;99.90
31991;DHT22;18508;49.386;8.370;2022-09-19T00:37:57;8.00;99.90
31991;DHT22;18508;49.386;8.370;2022-09-19T00:40:31;8.00;99.90
31991;DHT22;18508;49.386;8.370;2022-09-19T00:43:00;7.90;99.90
31991;DHT22;18508;49.386;8.370;2022-09-19T00:45:31;7.90;99.90
31991;DHT22;18508;49.386;8.370;2022-09-19T00:48:01;7.90;99.90
31991;DHT22;18508;49.386;8.370;2022-09-19T00:50:35;7.90;99.90
31991;DHT22;18508;49.386;8.370;2022-09-19T00:53:07;7.80;99.90
31991;DHT22;18508;49.386;8.370;2022-09-19T00:55:39;7.80;99.90
31991;DHT22;18508;49.386;8.370;2022-09-19T00:58:13;7.80;99.90
31991;DHT22;18508;49.386;8.370;2022-09-19T01:00:47;7.80;99.90
31991;DHT22;18508;49.386;8.370;2022-09-19T01:03:16;7.70;99.90
31991;DHT22;18508;49.386;8.370;2022-09-19T01:05:57;7.60;99.90
31991;DHT22;18508;49.386;8.370;2022-09-19T01:08:53;7.50;99.90
31991;DHT22;18508;49.386;8.370;2022-09-19T01:11:36;7.40;99.90
31991;DHT22;18508;49.386;8.370;2022-09-19T01:14:13;7.30;99.90
31991;DHT22;18508;49.386;8.370;2022-09-19T01:16:50;7.30;99.90
31991;DHT22;18508;49.386;8.370;2022-09-19T01:19:41;7.20;99.90
31991;DHT22;18508;49.386;8.370;2022-09-19T01:22:22;7.20;99.90
31991;DHT22;18508;49.386;8.370;2022-09-19T01:24:59;7.10;99.90
31991;DHT22;18508;49.386;8.370;2022-09-19T01:30:22;7.10;99.90
31991;DHT22;18508;49.386;8.370;2022-09-19T01:32:55;7.00;99.90
31991;DHT22;18508;49.386;8.370;2022-09-19T01:35:28;7.00;99.90
31991;DHT22;18508;49.386;8.370;2022-09-19T01:38:02;7.00;99.90
31991;DHT22;18508;49.386;8.370;2022-09-19T01:40:36;7.00;99.90
31991;DHT22;18508;49.386;8.370;2022-09-19T01:43:14;7.00;99.90
31991;DHT22;18508;49.386;8.370;2022-09-19T01:45:48;7.00;99.90
31991;DHT22;18508;49.386;8.370;2022-09-19T01:48:26;6.90;99.90
31991;DHT22;18508;49.386;8.370;2022-09-19T01:51:11;6.90;99.90
31991;DHT22;18508;49.386;8.370;2022-09-19T01:53:57;6.90;99.90
31991;DHT22;18508;49.386;8.370;2022-09-19T01:56:35;6.90;99.90
31991;DHT22;18508;49.386;8.370;2022-09-19T01:59:19;6.90;99.90
31991;DHT22;18508;49.386;8.370;2022-09-19T02:01:55;6.90;99.90
31991;DHT22;18508;49.386;8.370;2022-09-19T02:04:32;6.90;99.90
31991;DHT22;18508;49.386;8.370;2022-09-19T02:07:06;6.90;99.90
31991;DHT22;18508;49.386;8.370;2022-09-19T02:09:44;6.90;99.90
31991;DHT22;18508;49.386;8.370;2022-09-19T02:12:15;6.90;99.90
31991;DHT22;18508;49.386;8.370;2022-09-19T02:14:49;6.90;99.90
31991;DHT22;18508;49.386;8.370;2022-09-19T02:17:30;6.90;99.90
31991;DHT22;18508;49.386;8.370;2022-09-19T02:20:06;6.90;99.90
31991;DHT22;18508;49.386;8.370;2022-09-19T02:22:39;6.90;99.90
31991;DHT22;18508;49.386;8.370;2022-09-19T02:25:14;6.90;99.90
31991;DHT22;18508;49.386;8.370;2022-09-19T02:27:51;6.90;99.90
31991;DHT22;18508;49.386;8.370;2022-09-19T02:30:22;6.90;99.90
31991;DHT22;18508;49.386;8.370;2022-09-19T02:32:53;6.90;99.90
31991;DHT22;18508;49.386;8.370;2022-09-19T02:35:35;6.90;99.90
31991;DHT22;18508;49.386;8.370;2022-09-19T02:38:13;6.90;99.90
31991;DHT22;18508;49.386;8.370;2022-09-19T02:40:49;6.90;99.90
31991;DHT22;18508;49.386;8.370;2022-09-19T02:43:26;7.00;99.90
31991;DHT22;18508;49.386;8.370;2022-09-19T02:46:03;7.00;99.90
31991;DHT22;18508;49.386;8.370;2022-09-19T02:48:41;7.00;99.90
31991;DHT22;18508;49.386;8.370;2022-09-19T02:51:13;7.00;99.90
31991;DHT22;18508;49.386;8.370;2022-09-19T02:53:50;7.00;99.90
31991;DHT22;18508;49.386;8.370;2022-09-19T02:56:24;7.00;99.90
31991;DHT22;18508;49.386;8.370;2022-09-19T02:59:00;7.10;99.90
31991;DHT22;18508;49.386;8.370;2022-09-19T03:01:32;7.10;99.90
31991;DHT22;18508;49.386;8.370;2022-09-19T03:04:06;7.10;99.90
31991;DHT22;18508;49.386;8.370;2022-09-19T03:06:49;7.10;99.90
31991;DHT22;18508;49.386;8.370;2022-09-19T03:09:24;7.20;99.90
31991;DHT22;18508;49.386;8.370;2022-09-19T03:11:58;7.20;99.90
31991;DHT22;18508;49.386;8.370;2022-09-19T03:14:31;7.30;99.90
31991;DHT22;18508;49.386;8.370;2022-09-19T03:17:02;7.30;99.90
31991;DHT22;18508;49.386;8.370;2022-09-19T03:19:33;7.40;99.90
31991;DHT22;18508;49.386;8.370;2022-09-19T03:22:07;7.50;99.90
31991;DHT22;18508;49.386;8.370;2022-09-19T03:24:40;7.50;99.90
31991;DHT22;18508;49.386;8.370;2022-09-19T03:27:14;7.50;99.90
31991;DHT22;18508;49.386;8.370;2022-09-19T03:29:46;7.50;99.90
31991;DHT22;18508;49.386;8.370;2022-09-19T03:32:21;7.50;99.90
31991;DHT22;18508;49.386;8.370;2022-09-19T03:35:01;7.50;99.90
31991;DHT22;18508;49.386;8.370;2022-09-19T03:37:37;7.60;99.90
31991;DHT22;18508;49.386;8.370;2022-09-19T03:40:15;7.50;99.90
31991;DHT22;18508;49.386;8.370;2022-09-19T03:42:53;7.50;99.90
31991;DHT22;18508;49.386;8.370;2022-09-19T03:45:42;7.50;99.90
31991;DHT22;18508;49.386;8.370;2022-09-19T03:48:16;7.40;99.90
31991;DHT22;18508;49.386;8.370;2022-09-19T03:50:51;7.40;99.90
31991;DHT22;18508;49.386;8.370;2022-09-19T03:53:29;7.30;99.90
31991;DHT22;18508;49.386;8.370;2022-09-19T03:55:58;7.30;99.90
31991;DHT22;18508;49.386;8.370;2022-09-19T03:58:33;7.30;99.90
31991;DHT22;18508;49.386;8.370;2022-09-19T04:01:06;7.20;99.90
31991;DHT22;18508;49.386;8.370;2022-09-19T04:04:10;7.20;99.90
31991;DHT22;18508;49.386;8.370;2022-09-19T04:06:51;7.20;99.90
31991;DHT22;18508;49.386;8.370;2022-09-19T04:12:11;7.10;99.90
31991;DHT22;18508;49.386;8.370;2022-09-19T04:14:52;7.10;99.90
31991;DHT22;18508;49.386;8.370;2022-09-19T04:17:23;7.10;99.90
31991;DHT22;18508;49.386;8.370;2022-09-19T04:19:55;7.20;99.90
31991;DHT22;18508;49.386;8.370;2022-09-19T04:22:27;7.30;99.90
31991;DHT22;18508;49.386;8.370;2022-09-19T04:25:09;7.30;99.90
31991;DHT22;18508;49.386;8.370;2022-09-19T04:28:12;7.40;99.90
31991;DHT22;18508;49.386;8.370;2022-09-19T04:30:52;7.40;99.90
31991;DHT22;18508;49.386;8.370;2022-09-19T04:33:23;7.50;99.90
31991;DHT22;18508;49.386;8.370;2022-09-19T04:36:04;7.60;99.90
31991;DHT22;18508;49.386;8.370;2022-09-19T04:38:41;7.60;99.90
31991;DHT22;18508;49.386;8.370;2022-09-19T04:41:15;7.70;99.90
31991;DHT22;18508;49.386;8.370;2022-09-19T04:43:48;7.70;99.90
31991;DHT22;18508;49.386;8.370;2022-09-19T04:46:21;7.80;99.90
31991;DHT22;18508;49.386;8.370;2022-09-19T04:48:55;7.80;99.90
31991;DHT22;18508;49.386;8.370;2022-09-19T04:51:32;7.90;99.90
31991;DHT22;18508;49.386;8.370;2022-09-19T04:54:09;7.90;99.90
31991;DHT22;18508;49.386;8.370;2022-09-19T04:56:44;7.90;99.90
31991;DHT22;18508;49.386;8.370;2022-09-19T04:59:21;8.00;99.90
31991;DHT22;18508;49.386;8.370;2022-09-19T05:02:03;8.10;99.90
31991;DHT22;18508;49.386;8.370;2022-09-19T05:04:38;8.10;99.90
31991;DHT22;18508;49.386;8.370;2022-09-19T05:07:15;8.10;99.90
31991;DHT22;18508;49.386;8.370;2022-09-19T05:09:51;8.20;99.90
31991;DHT22;18508;49.386;8.370;2022-09-19T05:12:29;8.20;99.90
31991;DHT22;18508;49.386;8.370;2022-09-19T05:15:13;8.20;99.90
31991;DHT22;18508;49.386;8.370;2022-09-19T05:17:48;8.30;99.90
31991;DHT22;18508;49.386;8.370;2022-09-19T05:20:21;8.30;99.90
31991;DHT22;18508;49.386;8.370;2022-09-19T05:22:57;8.30;99.90
31991;DHT22;18508;49.386;8.370;2022-09-19T05:25:30;8.40;99.90
31991;DHT22;18508;49.386;8.370;2022-09-19T05:28:03;8.40;99.90
31991;DHT22;18508;49.386;8.370;2022-09-19T05:30:35;8.50;99.90
31991;DHT22;18508;49.386;8.370;2022-09-19T05:33:04;8.50;99.90
31991;DHT22;18508;49.386;8.370;2022-09-19T05:35:34;8.50;99.90
31991;DHT22;18508;49.386;8.370;2022-09-19T05:38:03;8.50;99.90
31991;DHT22;18508;49.386;8.370;2022-09-19T05:40:36;8.60;99.90
31991;DHT22;18508;49.386;8.370;2022-09-19T05:43:06;8.60;99.90
31991;DHT22;18508;49.386;8.370;2022-09-19T05:45:35;8.60;99.90
31991;DHT22;18508;49.386;8.370;2022-09-19T05:48:11;8.70;99.90
31991;DHT22;18508;49.386;8.370;2022-09-19T05:50:42;8.80;99.90
31991;DHT22;18508;49.386;8.370;2022-09-19T05:53:15;8.80;99.90
31991;DHT22;18508;49.386;8.370;2022-09-19T05:56:04;8.90;99.90
31991;DHT22;18508;49.386;8.370;2022-09-19T05:58:36;9.00;99.90
31991;DHT22;18508;49.386;8.370;2022-09-19T06:01:14;9.00;99.90
31991;DHT22;18508;49.386;8.370;2022-09-19T06:03:45;9.10;99.90
31991;DHT22;18508;49.386;8.370;2022-09-19T06:06:17;9.10;99.90
31991;DHT22;18508;49.386;8.370;2022-09-19T06:08:53;9.10;99.90
31991;DHT22;18508;49.386;8.370;2022-09-19T06:11:25;9.20;99.90
31991;DHT22;18508;49.386;8.370;2022-09-19T06:13:54;9.20;99.90
31991;DHT22;18508;49.386;8.370;2022-09-19T06:16:41;9.30;99.90
31991;DHT22;18508;49.386;8.370;2022-09-19T06:19:10;9.30;99.90
31991;DHT22;18508;49.386;8.370;2022-09-19T06:21:45;9.30;99.90
31991;DHT22;18508;49.386;8.370;2022-09-19T06:24:17;9.40;99.90
31991;DHT22;18508;49.386;8.370;2022-09-19T06:26:51;9.40;99.90
31991;DHT22;18508;49.386;8.370;2022-09-19T06:29:24;9.50;99.90
31991;DHT22;18508;49.386;8.370;2022-09-19T06:31:53;9.50;99.90
31991;DHT22;18508;49.386;8.370;2022-09-19T06:34:22;9.50;99.90
31991;DHT22;18508;49.386;8.370;2022-09-19T06:37:13;9.60;99.90
31991;DHT22;18508;49.386;8.370;2022-09-19T06:39:44;9.70;99.90
31991;DHT22;18508;49.386;8.370;2022-09-19T06:42:17;9.80;99.90
31991;DHT22;18508;49.386;8.370;2022-09-19T06:44:55;9.90;99.90
31991;DHT22;18508;49.386;8.370;2022-09-19T06:47:24;10.00;99.90
31991;DHT22;18508;49.386;8.370;2022-09-19T06:49:58;10.10;99.90
31991;DHT22;18508;49.386;8.370;2022-09-19T06:52:45;10.30;99.90
31991;DHT22;18508;49.386;8.370;2022-09-19T06:55:13;10.40;99.90
31991;DHT22;18508;49.386;8.370;2022-09-19T06:57:52;10.50;99.90
31991;DHT22;18508;49.386;8.370;2022-09-19T07:00:25;10.50;99.90
31991;DHT22;18508;49.386;8.370;2022-09-19T07:02:58;10.60;99.90
31991;DHT22;18508;49.386;8.370;2022-09-19T07:05:27;10.60;99.90
31991;DHT22;18508;49.386;8.370;2022-09-19T07:08:02;10.60;99.90
31991;DHT22;18508;49.386;8.370;2022-09-19T07:10:34;10.70;99.90
31991;DHT22;18508;49.386;8.370;2022-09-19T07:13:09;10.70;99.90
31991;DHT22;18508;49.386;8.370;2022-09-19T07:15:41;10.80;99.90
31991;DHT22;18508;49.386;8.370;2022-09-19T07:18:12;10.80;99.90
31991;DHT22;18508;49.386;8.370;2022-09-19T07:20:44;10.80;99.90
31991;DHT22;18508;49.386;8.370;2022-09-19T07:23:14;10.80;99.90
31991;DHT22;18508;49.386;8.370;2022-09-19T07:25:43;10.80;99.90
31991;DHT22;18508;49.386;8.370;2022-09-19T07:28:18;10.90;99.90
31991;DHT22;18508;49.386;8.370;2022-09-19T07:30:47;10.90;99.90
31991;DHT22;18508;49.386;8.370;2022-09-19T07:33:20;11.00;99.90
31991;DHT22;18508;49.386;8.370;2022-09-19T07:35:52;11.10;99.90
31991;DHT22;18508;49.386;8.370;2022-09-19T07:38:22;11.20;99.90
31991;DHT22;18508;49.386;8.370;2022-09-19T07:40:55;11.30;99.90
31991;DHT22;18508;49.386;8.370;2022-09-19T07:43:28;11.40;99.90
31991;DHT22;18508;49.386;8.370;2022-09-19T07:45:58;11.50;99.90
31991;DHT22;18508;49.386;8.370;2022-09-19T07:48:28;11.80;99.90
31991;DHT22;18508;49.386;8.370;2022-09-19T07:50:58;12.00;99.90
31991;DHT22;18508;49.386;8.370;2022-09-19T07:53:29;12.10;99.90
31991;DHT22;18508;49.386;8.370;2022-09-19T07:56:00;12.20;99.90
31991;DHT22;18508;49.386;8.370;2022-09-19T07:58:31;12.30;99.90
31991;DHT22;18508;49.386;8.370;2022-09-19T08:01:01;12.40;99.90
31991;DHT22;18508;49.386;8.370;2022-09-19T08:03:30;12.40;99.90
31991;DHT22;18508;49.386;8.370;2022-09-19T08:06:00;12.40;99.90
31991;DHT22;18508;49.386;8.370;2022-09-19T08:08:39;12.50;99.90
31991;DHT22;18508;49.386;8.370;2022-09-19T08:11:08;12.50;99.90
31991;DHT22;18508;49.386;8.370;2022-09-19T08:13:39;12.60;99.90
31991;DHT22;18508;49.386;8.370;2022-09-19T08:16:10;12.70;99.90
31991;DHT22;18508;49.386;8.370;2022-09-19T08:18:39;12.60;99.90
31991;DHT22;18508;49.386;8.370;2022-09-19T08:21:11;12.60;99.90
31991;DHT22;18508;49.386;8.370;2022-09-19T08:23:45;12.60;99.90
31991;DHT22;18508;49.386;8.370;2022-09-19T08:26:14;12.80;99.90
31991;DHT22;18508;49.386;8.370;2022-09-19T08:28:52;12.90;99.90
31991;DHT22;18508;49.386;8.370;2022-09-19T08:31:21;12.80;99.90
31991;DHT22;18508;49.386;8.370;2022-09-19T08:33:56;12.80;99.90
31991;DHT22;18508;49.386;8.370;2022-09-19T08:36:28;12.90;99.90
31991;DHT22;18508;49.386;8.370;2022-09-19T08:38:58;12.90;99.90
31991;DHT22;18508;49.386;8.370;2022-09-19T08:41:53;12.80;99.90
31991;DHT22;18508;49.386;8.370;2022-09-19T08:44:33;12.70;99.90
31991;DHT22;18508;49.386;8.370;2022-09-19T08:47:10;12.70;99.90
31991;DHT22;18508;49.386;8.370;2022-09-19T08:49:45;12.70;99.90
31991;DHT22;18508;49.386;8.370;2022-09-19T08:52:18;12.70;99.90
31991;DHT22;18508;49.386;8.370;2022-09-19T08:54:53;12.80;99.90
31991;DHT22;18508;49.386;8.370;2022-09-19T08:57:31;12.90;99.90
31991;DHT22;18508;49.386;8.370;2022-09-19T09:00:05;13.00;99.90
31991;DHT22;18508;49.386;8.370;2022-09-19T09:02:41;13.20;99.90
31991;DHT22;18508;49.386;8.370;2022-09-19T09:05:42;13.30;99.90
31991;DHT22;18508;49.386;8.370;2022-09-19T09:08:24;13.40;99.90
31991;DHT22;18508;49.386;8.370;2022-09-19T09:11:06;13.50;99.90
31991;DHT22;18508;49.386;8.370;2022-09-19T09:13:57;13.60;99.90
31991;DHT22;18508;49.386;8.370;2022-09-19T09:16:50;13.80;99.90
31991;DHT22;18508;49.386;8.370;2022-09-19T09:19:47;14.10;99.90
31991;DHT22;18508;49.386;8.370;2022-09-19T09:22:25;14.20;99.90
31991;DHT22;18508;49.386;8.370;2022-09-19T09:25:10;14.30;99.90
31991;DHT22;18508;49.386;8.370;2022-09-19T09:27:50;14.20;99.90
31991;DHT22;18508;49.386;8.370;2022-09-19T09:30:24;14.10;99.90
31991;DHT22;18508;49.386;8.370;2022-09-19T09:33:10;14.10;99.90
31991;DHT22;18508;49.386;8.370;2022-09-19T09:36:00;14.10;99.90
31991;DHT22;18508;49.386;8.370;2022-09-19T09:38:33;14.40;99.90
31991;DHT22;18508;49.386;8.370;2022-09-19T09:41:15;14.60;99.90
31991;DHT22;18508;49.386;8.370;2022-09-19T09:44:35;14.90;99.90
31991;DHT22;18508;49.386;8.370;2022-09-19T09:47:24;15.00;92.90
31991;DHT22;18508;49.386;8.370;2022-09-19T09:50:13;15.20;92.70
31991;DHT22;18508;49.386;8.370;2022-09-19T09:52:59;15.20;92.80
31991;DHT22;18508;49.386;8.370;2022-09-19T09:55:41;15.30;95.20
31991;DHT22;18508;49.386;8.370;2022-09-19T09:58:38;15.20;97.00
31991;DHT22;18508;49.386;8.370;2022-09-19T10:01:26;15.00;94.60
31991;DHT22;18508;49.386;8.370;2022-09-19T10:04:23;14.70;98.80
31991;DHT22;18508;49.386;8.370;2022-09-19T10:07:17;14.50;99.90
31991;DHT22;18508;49.386;8.370;2022-09-19T10:09:56;14.50;99.90
31991;DHT22;18508;49.386;8.370;2022-09-19T10:12:42;14.50;99.90
31991;DHT22;18508;49.386;8.370;2022-09-19T10:15:23;14.60;99.90
31991;DHT22;18508;49.386;8.370;2022-09-19T10:17:55;14.80;99.90
31991;DHT22;18508;49.386;8.370;2022-09-19T10:20:36;14.80;99.90
31991;DHT22;18508;49.386;8.370;2022-09-19T10:23:13;14.80;99.90
31991;DHT22;18508;49.386;8.370;2022-09-19T10:25:47;15.00;91.90
31991;DHT22;18508;49.386;8.370;2022-09-19T10:28:25;15.20;88.30
31991;DHT22;18508;49.386;8.370;2022-09-19T10:31:00;15.40;79.60
31991;DHT22;18508;49.386;8.370;2022-09-19T10:33:39;15.80;85.20
31991;DHT22;18508;49.386;8.370;2022-09-19T10:36:18;16.10;66.80
31991;DHT22;18508;49.386;8.370;2022-09-19T10:38:54;16.30;51.50
31991;DHT22;18508;49.386;8.370;2022-09-19T10:41:27;16.20;44.90
31991;DHT22;18508;49.386;8.370;2022-09-19T10:43:59;16.10;45.40
31991;DHT22;18508;49.386;8.370;2022-09-19T10:46:31;16.00;54.50
31991;DHT22;18508;49.386;8.370;2022-09-19T10:49:14;15.90;60.20
31991;DHT22;18508;49.386;8.370;2022-09-19T10:51:48;15.90;67.40
31991;DHT22;18508;49.386;8.370;2022-09-19T10:54:29;16.10;65.70
31991;DHT22;18508;49.386;8.370;2022-09-19T10:57:04;16.10;60.80
31991;DHT22;18508;49.386;8.370;2022-09-19T10:59:37;16.00;73.00
31991;DHT22;18508;49.386;8.370;2022-09-19T11:02:18;16.10;63.10
31991;DHT22;18508;49.386;8.370;2022-09-19T11:04:57;16.00;59.10
31991;DHT22;18508;49.386;8.370;2022-09-19T11:07:48;15.90;64.80
31991;DHT22;18508;49.386;8.370;2022-09-19T11:10:35;15.50;99.90
31991;DHT22;18508;49.386;8.370;2022-09-19T11:13:16;15.40;99.90
31991;DHT22;18508;49.386;8.370;2022-09-19T11:16:07;15.30;99.90
31991;DHT22;18508;49.386;8.370;2022-09-19T11:18:59;15.10;99.90
31991;DHT22;18508;49.386;8.370;2022-09-19T11:21:40;15.20;99.90
31991;DHT22;18508;49.386;8.370;2022-09-19T11:24:42;15.30;99.90
31991;DHT22;18508;49.386;8.370;2022-09-19T11:27:44;15.40;99.90
31991;DHT22;18508;49.386;8.370;2022-09-19T11:30:19;15.50;99.90
31991;DHT22;18508;49.386;8.370;2022-09-19T11:33:16;15.60;99.90
31991;DHT22;18508;49.386;8.370;2022-09-19T11:36:20;16.00;99.90
31991;DHT22;18508;49.386;8.370;2022-09-19T11:39:19;16.30;79.60
31991;DHT22;18508;49.386;8.370;2022-09-19T11:42:24;16.70;62.30
31991;DHT22;18508;49.386;8.370;2022-09-19T11:45:09;17.20;47.40
31991;DHT22;18508;49.386;8.370;2022-09-19T11:47:57;17.30;30.40
31991;DHT22;18508;49.386;8.370;2022-09-19T11:53:46;17.60;16.30
31991;DHT22;18508;49.386;8.370;2022-09-19T11:56:29;17.90;16.90
31991;DHT22;18508;49.386;8.370;2022-09-19T11:59:23;18.20;8.80
31991;DHT22;18508;49.386;8.370;2022-09-19T12:02:14;18.50;2.20
31991;DHT22;18508;49.386;8.370;2022-09-19T12:05:04;18.30;1.00
31991;DHT22;18508;49.386;8.370;2022-09-19T12:07:47;18.30;7.50
31991;DHT22;18508;49.386;8.370;2022-09-19T12:10:40;18.10;4.60
31991;DHT22;18508;49.386;8.370;2022-09-19T12:13:22;18.20;1.20
31991;DHT22;18508;49.386;8.370;2022-09-19T12:16:03;18.30;1.80
31991;DHT22;18508;49.386;8.370;2022-09-19T12:18:48;18.00;1.00
31991;DHT22;18508;49.386;8.370;2022-09-19T12:21:23;17.60;2.30
31991;DHT22;18508;49.386;8.370;2022-09-19T12:24:02;17.40;5.70
31991;DHT22;18508;49.386;8.370;2022-09-19T12:27:06;17.20;8.20
31991;DHT22;18508;49.386;8.370;2022-09-19T12:29:46;17.00;16.60
31991;DHT22;18508;49.386;8.370;2022-09-19T12:32:24;16.90;20.00
31991;DHT22;18508;49.386;8.370;2022-09-19T12:35:00;17.10;18.80
31991;DHT22;18508;49.386;8.370;2022-09-19T12:37:37;17.10;25.30
31991;DHT22;18508;49.386;8.370;2022-09-19T12:40:19;17.50;20.30
31991;DHT22;18508;49.386;8.370;2022-09-19T12:42:56;17.90;13.80
31991;DHT22;18508;49.386;8.370;2022-09-19T12:45:34;18.20;11.60
31991;DHT22;18508;49.386;8.370;2022-09-19T12:48:16;18.70;14.50
31991;DHT22;18508;49.386;8.370;2022-09-19T12:51:07;18.90;6.00
31991;DHT22;18508;49.386;8.370;2022-09-19T12:53:47;18.80;3.00
31991;DHT22;18508;49.386;8.370;2022-09-19T12:56:21;18.40;4.20
31991;DHT22;18508;49.386;8.370;2022-09-19T12:59:01;17.90;6.40
31991;DHT22;18508;49.386;8.370;2022-09-19T13:01:37;17.00;82.60
31991;DHT22;18508;49.386;8.370;2022-09-19T13:04:23;15.10;99.90
31991;DHT22;18508;49.386;8.370;2022-09-19T13:07:03;13.80;99.90
31991;DHT22;18508;49.386;8.370;2022-09-19T13:09:48;13.20;99.90
31991;DHT22;18508;49.386;8.370;2022-09-19T13:12:28;12.90;99.90
31991;DHT22;18508;49.386;8.370;2022-09-19T13:15:02;12.90;99.90
31991;DHT22;18508;49.386;8.370;2022-09-19T13:17:35;12.80;99.90
31991;DHT22;18508;49.386;8.370;2022-09-19T13:20:32;12.90;99.90
31991;DHT22;18508;49.386;8.370;2022-09-19T13:23:27;13.00;99.90
31991;DHT22;18508;49.386;8.370;2022-09-19T13:26:20;13.10;99.90
31991;DHT22;18508;49.386;8.370;2022-09-19T13:28:57;13.30;99.90
31991;DHT22;18508;49.386;8.370;2022-09-19T13:34:39;13.50;99.90
31991;DHT22;18508;49.386;8.370;2022-09-19T13:37:46;13.60;99.90
31991;DHT22;18508;49.386;8.370;2022-09-19T13:40:40;13.70;99.90
31991;DHT22;18508;49.386;8.370;2022-09-19T13:43:27;14.00;99.90
31991;DHT22;18508;49.386;8.370;2022-09-19T13:46:05;14.20;99.90
31991;DHT22;18508;49.386;8.370;2022-09-19T13:48:43;14.20;99.90
31991;DHT22;18508;49.386;8.370;2022-09-19T13:51:22;14.10;99.90
31991;DHT22;18508;49.386;8.370;2022-09-19T13:57:18;14.20;99.90
31991;DHT22;18508;49.386;8.370;2022-09-19T13:59:54;14.40;99.90
31991;DHT22;18508;49.386;8.370;2022-09-19T14:02:28;14.60;99.90
31991;DHT22;18508;49.386;8.370;2022-09-19T14:05:01;15.00;99.90
31991;DHT22;18508;49.386;8.370;2022-09-19T14:07:37;15.70;99.90
31991;DHT22;18508;49.386;8.370;2022-09-19T14:10:44;16.50;99.90
31991;DHT22;18508;49.386;8.370;2022-09-19T14:13:35;17.30;99.90
31991;DHT22;18508;49.386;8.370;2022-09-19T14:16:08;17.80;99.90
31991;DHT22;18508;49.386;8.370;2022-09-19T14:18:50;18.30;99.90
31991;DHT22;18508;49.386;8.370;2022-09-19T14:21:53;17.90;99.90
31991;DHT22;18508;49.386;8.370;2022-09-19T14:24:52;18.00;99.90
31991;DHT22;18508;49.386;8.370;2022-09-19T14:31:04;18.60;99.90
31991;DHT22;18508;49.386;8.370;2022-09-19T14:40:20;19.70;99.90
31991;DHT22;18508;49.386;8.370;2022-09-19T14:43:19;19.60;78.40
31991;DHT22;18508;49.386;8.370;2022-09-19T14:46:25;20.00;99.90
31991;DHT22;18508;49.386;8.370;2022-09-19T14:49:11;20.30;99.90
31991;DHT22;18508;49.386;8.370;2022-09-19T14:51:51;20.50;55.40
31991;DHT22;18508;49.386;8.370;2022-09-19T14:54:40;20.90;27.30
31991;DHT22;18508;49.386;8.370;2022-09-19T14:57:14;21.10;35.50
31991;DHT22;18508;49.386;8.370;2022-09-19T14:59:48;21.40;74.30
31991;DHT22;18508;49.386;8.370;2022-09-19T15:02:25;21.30;33.20
31991;DHT22;18508;49.386;8.370;2022-09-19T15:05:00;21.40;25.70
31991;DHT22;18508;49.386;8.370;2022-09-19T15:07:34;21.30;9.20
31991;DHT22;18508;49.386;8.370;2022-09-19T15:10:29;20.60;1.00
31991;DHT22;18508;49.386;8.370;2022-09-19T15:13:20;20.70;19.60
31991;DHT22;18508;49.386;8.370;2022-09-19T15:15:54;20.10;1.00
31991;DHT22;18508;49.386;8.370;2022-09-19T15:18:29;20.00;1.00
31991;DHT22;18508;49.386;8.370;2022-09-19T15:21:12;20.70;8.70
31991;DHT22;18508;49.386;8.370;2022-09-19T15:24:04;21.50;1.00
31991;DHT22;18508;49.386;8.370;2022-09-19T15:26:42;21.60;1.00
31991;DHT22;18508;49.386;8.370;2022-09-19T15:29:23;22.00;1.00
31991;DHT22;18508;49.386;8.370;2022-09-19T15:32:11;22.50;1.00
31991;DHT22;18508;49.386;8.370;2022-09-19T15:34:44;22.80;1.00
31991;DHT22;18508;49.386;8.370;2022-09-19T15:37:20;22.20;1.00
31991;DHT22;18508;49.386;8.370;2022-09-19T15:39:55;22.50;1.00
31991;DHT22;18508;49.386;8.370;2022-09-19T15:42:35;22.80;1.00
31991;DHT22;18508;49.386;8.370;2022-09-19T15:45:39;23.10;1.00
31991;DHT22;18508;49.386;8.370;2022-09-19T15:48:18;23.50;1.00
31991;DHT22;18508;49.386;8.370;2022-09-19T15:51:06;24.20;1.00
31991;DHT22;18508;49.386;8.370;2022-09-19T15:53:40;23.80;1.00
31991;DHT22;18508;49.386;8.370;2022-09-19T15:56:11;23.10;1.00
31991;DHT22;18508;49.386;8.370;2022-09-19T15:58:53;22.60;1.00
31991;DHT22;18508;49.386;8.370;2022-09-19T16:01:25;21.90;1.00
31991;DHT22;18508;49.386;8.370;2022-09-19T16:04:01;21.20;1.00
31991;DHT22;18508;49.386;8.370;2022-09-19T16:06:43;20.70;1.00
31991;DHT22;18508;49.386;8.370;2022-09-19T16:09:33;19.90;3.20
31991;DHT22;18508;49.386;8.370;2022-09-19T16:12:11;19.50;13.60
31991;DHT22;18508;49.386;8.370;2022-09-19T16:15:00;19.00;26.60
31991;DHT22;18508;49.386;8.370;2022-09-19T16:18:06;18.60;27.60
31991;DHT22;18508;49.386;8.370;2022-09-19T16:21:00;18.30;45.90
31991;DHT22;18508;49.386;8.370;2022-09-19T16:23:42;18.00;60.00
31991;DHT22;18508;49.386;8.370;2022-09-19T16:26:16;17.80;53.60
31991;DHT22;18508;49.386;8.370;2022-09-19T16:28:50;17.70;91.40
31991;DHT22;18508;49.386;8.370;2022-09-19T16:31:24;17.50;80.10
31991;DHT22;18508;49.386;8.370;2022-09-19T16:33:57;17.20;70.30
31991;DHT22;18508;49.386;8.370;2022-09-19T16:36:29;16.80;63.80
31991;DHT22;18508;49.386;8.370;2022-09-19T16:39:48;16.70;82.30
31991;DHT22;18508;49.386;8.370;2022-09-19T16:42:27;16.50;94.40
31991;DHT22;18508;49.386;8.370;2022-09-19T16:47:49;16.30;99.90
31991;DHT22;18508;49.386;8.370;2022-09-19T16:50:25;16.00;99.90
31991;DHT22;18508;49.386;8.370;2022-09-19T16:52:56;16.00;99.90
31991;DHT22;18508;49.386;8.370;2022-09-19T16:55:37;16.00;99.50
31991;DHT22;18508;49.386;8.370;2022-09-19T16:58:11;16.00;99.90
31991;DHT22;18508;49.386;8.370;2022-09-19T17:00:43;16.10;93.40
31991;DHT22;18508;49.386;8.370;2022-09-19T17:03:14;16.10;94.00
31991;DHT22;18508;49.386;8.370;2022-09-19T17:05:47;16.20;99.90
31991;DHT22;18508;49.386;8.370;2022-09-19T17:08:18;16.20;99.90
31991;DHT22;18508;49.386;8.370;2022-09-19T17:10:48;16.40;99.90
31991;DHT22;18508;49.386;8.370;2022-09-19T17:13:17;16.30;99.90
31991;DHT22;18508;49.386;8.370;2022-09-19T17:15:48;16.10;97.70